createdAt,value
2019-03-26T00:00:37.321Z,30.37
2019-03-26T00:03:05.885Z,29.97
2019-03-26T00:05:34.310Z,29.40
2019-03-26T00:08:02.858Z,27.07
2019-03-26T00:10:31.278Z,27.70
2019-03-26T00:12:59.910Z,24.57
2019-03-26T00:15:28.495Z,28.07
2019-03-26T00:17:56.948Z,24.77
2019-03-26T00:20:25.360Z,22.83
2019-03-26T00:22:53.993Z,23.73
2019-03-26T00:25:22.558Z,22.80
2019-03-26T00:27:50.981Z,24.87
2019-03-26T00:30:19.472Z,23.00
2019-03-26T00:32:48.040Z,26.87
2019-03-26T00:35:16.484Z,25.87
2019-03-26T00:37:44.965Z,25.13
2019-03-26T00:40:13.532Z,23.43
2019-03-26T00:42:42.036Z,21.50
2019-03-26T00:45:11.444Z,20.27
2019-03-26T00:47:39.953Z,20.27
2019-03-26T00:50:08.386Z,20.53
2019-03-26T00:52:36.878Z,21.60
2019-03-26T00:55:07.130Z,22.63
2019-03-26T00:57:35.558Z,26.83
2019-03-26T01:00:06.067Z,27.17
2019-03-26T01:02:34.486Z,16.37
2019-03-26T01:05:02.911Z,22.57
2019-03-26T01:07:31.402Z,15.70
2019-03-26T01:09:59.827Z,22.10
2019-03-26T01:12:31.113Z,15.37
2019-03-26T01:14:58.364Z,20.70
2019-03-26T01:17:26.858Z,18.17
2019-03-26T01:19:55.285Z,16.90
2019-03-26T01:22:23.771Z,12.93
2019-03-26T01:24:52.198Z,17.60
2019-03-26T01:27:20.754Z,15.00
2019-03-26T01:29:49.224Z,20.47
2019-03-26T01:32:17.667Z,23.03
2019-03-26T01:34:46.494Z,18.20
2019-03-26T01:37:15.124Z,17.40
2019-03-26T01:39:43.527Z,16.63
2019-03-26T01:42:12.028Z,20.43
2019-03-26T01:44:40.507Z,21.23
2019-03-26T01:47:09.935Z,15.10
2019-03-26T01:49:38.341Z,14.93
2019-03-26T01:52:06.888Z,13.50
2019-03-26T01:54:35.311Z,15.77
2019-03-26T01:57:03.710Z,13.80
2019-03-26T01:59:32.323Z,12.87
2019-03-26T02:02:00.889Z,16.10
2019-03-26T02:04:29.304Z,20.13
2019-03-26T02:06:57.871Z,15.13
2019-03-26T02:09:26.294Z,14.97
2019-03-26T02:11:54.779Z,13.43
2019-03-26T02:14:23.331Z,16.07
2019-03-26T02:16:51.864Z,12.90
2019-03-26T02:19:20.281Z,13.90
2019-03-26T02:21:48.761Z,11.87
2019-03-26T02:24:17.310Z,16.27
2019-03-26T02:26:45.810Z,14.60
2019-03-26T02:29:14.398Z,16.07
2019-03-26T02:31:43.064Z,13.23
2019-03-26T02:34:11.478Z,13.93
2019-03-26T02:36:40.067Z,16.60
2019-03-26T02:39:08.550Z,13.43
2019-03-26T02:41:38.131Z,13.97
2019-03-26T02:44:07.011Z,18.30
2019-03-26T02:46:35.567Z,17.47
2019-03-26T02:49:05.000Z,9.23
2019-03-26T02:51:33.627Z,13.37
2019-03-26T02:54:02.171Z,10.07
2019-03-26T02:56:30.657Z,10.13
2019-03-26T02:58:59.276Z,9.57
2019-03-26T03:01:27.898Z,8.20
2019-03-26T03:03:56.494Z,10.60
2019-03-26T03:06:25.007Z,14.93
2019-03-26T03:08:53.593Z,11.57
2019-03-26T03:11:22.129Z,8.20
2019-03-26T03:13:50.753Z,8.70
2019-03-26T03:16:19.308Z,14.57
2019-03-26T03:18:47.872Z,11.40
2019-03-26T03:21:16.516Z,13.53
2019-03-26T03:23:44.978Z,10.93
2019-03-26T03:26:13.552Z,10.63
2019-03-26T03:28:42.177Z,12.43
2019-03-26T03:31:10.702Z,16.97
2019-03-26T03:33:39.262Z,14.80
2019-03-26T03:36:07.720Z,11.50
2019-03-26T03:38:36.146Z,14.67
2019-03-26T03:41:04.777Z,10.63
2019-03-26T03:43:33.409Z,12.43
2019-03-26T03:46:01.795Z,12.30
2019-03-26T03:48:30.281Z,10.90
2019-03-26T03:50:58.834Z,18.13
2019-03-26T03:53:27.338Z,22.00
2019-03-26T03:55:56.699Z,21.77
2019-03-26T03:58:25.246Z,18.93
2019-03-26T04:00:53.729Z,20.20
2019-03-26T04:03:22.156Z,17.30
2019-03-26T04:06:07.743Z,13.77
2019-03-26T04:08:20.898Z,12.67
2019-03-26T04:10:49.446Z,12.20
2019-03-26T04:13:18.012Z,11.10
2019-03-26T04:15:46.577Z,14.70
2019-03-26T04:18:27.787Z,9.53
2019-03-26T04:20:56.250Z,11.00
2019-03-26T04:23:24.742Z,14.93
2019-03-26T04:25:53.210Z,11.30
2019-03-26T04:28:21.772Z,11.60
2019-03-26T04:30:50.280Z,14.27
2019-03-26T04:33:18.869Z,12.17
2019-03-26T04:35:47.420Z,10.30
2019-03-26T04:38:16.055Z,9.77
2019-03-26T04:40:44.723Z,14.03
2019-03-26T04:43:13.303Z,18.07
2019-03-26T04:45:41.727Z,18.83
2019-03-26T04:48:10.270Z,17.87
2019-03-26T04:50:38.765Z,18.27
2019-03-26T04:53:07.309Z,17.20
2019-03-26T04:55:35.927Z,21.33
2019-03-26T04:58:04.494Z,19.93
2019-03-26T05:00:33.010Z,21.13
2019-03-26T05:03:01.558Z,25.23
2019-03-26T05:05:30.037Z,27.87
2019-03-26T05:07:58.546Z,26.77
2019-03-26T05:10:27.032Z,26.33
2019-03-26T05:12:55.503Z,25.80
2019-03-26T05:15:24.073Z,32.30
2019-03-26T05:17:52.682Z,26.77
2019-03-26T05:20:21.200Z,26.47
2019-03-26T05:22:49.768Z,35.60
2019-03-26T05:25:18.357Z,26.37
2019-03-26T05:27:46.839Z,40.13
2019-03-26T05:30:15.432Z,33.60
2019-03-26T05:32:44.011Z,38.40
2019-03-26T05:35:12.424Z,35.67
2019-03-26T05:37:41.045Z,37.83
2019-03-26T05:40:10.570Z,29.97
2019-03-26T05:42:39.236Z,45.17
2019-03-26T05:45:08.676Z,21.97
2019-03-26T05:47:37.251Z,19.53
2019-03-26T05:50:07.384Z,49.70
2019-03-26T05:52:36.035Z,54.67
2019-03-26T05:55:06.954Z,43.87
2019-03-26T05:57:36.537Z,34.53
2019-03-26T06:00:10.724Z,41.03
2019-03-26T06:02:39.278Z,44.00
2019-03-26T06:05:07.843Z,41.33
2019-03-26T06:07:36.323Z,45.17
2019-03-26T06:10:09.233Z,30.63
2019-03-26T06:12:37.724Z,35.03
2019-03-26T06:15:09.413Z,42.40
2019-03-26T06:17:37.990Z,32.97
2019-03-26T06:20:07.513Z,29.73
2019-03-26T06:22:38.361Z,20.17
2019-03-26T06:25:07.623Z,27.20
2019-03-26T06:27:36.235Z,29.57
2019-03-26T06:30:08.147Z,27.63
2019-03-26T06:32:37.997Z,28.83
2019-03-26T06:35:08.182Z,26.13
2019-03-26T06:37:36.843Z,27.70
2019-03-26T06:40:10.966Z,26.40
2019-03-26T06:42:39.500Z,15.40
2019-03-26T06:45:09.467Z,21.77
2019-03-26T06:47:37.947Z,25.43
2019-03-26T06:50:08.738Z,28.83
2019-03-26T06:52:37.252Z,177.70
2019-03-26T06:55:07.709Z,179.53
2019-03-26T06:57:36.755Z,176.00
2019-03-26T07:00:07.518Z,174.73
2019-03-26T07:02:38.947Z,177.13
2019-03-26T07:05:07.581Z,186.77
2019-03-26T07:07:36.146Z,163.83
2019-03-26T07:10:07.033Z,168.90
2019-03-26T07:12:35.715Z,171.33
2019-03-26T07:15:05.970Z,167.30
2019-03-26T07:17:34.226Z,163.37
2019-03-26T07:20:02.854Z,171.50
2019-03-26T07:22:31.106Z,183.03
2019-03-26T07:24:59.663Z,160.73
2019-03-26T07:27:28.211Z,171.60
2019-03-26T07:29:56.862Z,169.07
2019-03-26T07:32:25.495Z,177.60
2019-03-26T07:34:56.314Z,169.37
2019-03-26T07:37:24.816Z,171.50
2019-03-26T07:39:53.381Z,170.57
2019-03-26T07:42:22.063Z,178.57
2019-03-26T07:44:50.631Z,178.63
2019-03-26T07:47:19.200Z,179.80
2019-03-26T07:49:47.842Z,184.83
2019-03-26T07:52:16.330Z,173.20
2019-03-26T07:54:44.895Z,191.80
2019-03-26T07:57:13.451Z,183.60
2019-03-26T07:59:42.351Z,181.47
2019-03-26T08:02:13.530Z,191.37
2019-03-26T08:04:41.876Z,201.47
2019-03-26T08:07:10.517Z,166.60
2019-03-26T08:09:39.075Z,185.87
2019-03-26T08:12:07.610Z,172.27
2019-03-26T08:14:35.827Z,156.00
2019-03-26T08:17:04.507Z,181.93
2019-03-26T08:19:33.166Z,175.10
2019-03-26T08:22:02.780Z,174.00
2019-03-26T08:24:31.159Z,178.83
2019-03-26T08:26:59.681Z,179.77
2019-03-26T08:29:28.197Z,165.63
2019-03-26T08:31:56.769Z,180.03
2019-03-26T08:34:25.451Z,185.73
2019-03-26T08:36:53.946Z,187.53
2019-03-26T08:39:22.519Z,185.33
2019-03-26T08:41:51.121Z,199.10
2019-03-26T08:44:19.708Z,177.67
2019-03-26T08:46:48.179Z,190.80
2019-03-26T08:49:16.490Z,185.27
2019-03-26T08:51:45.046Z,178.40
2019-03-26T08:54:13.376Z,175.87
2019-03-26T08:56:41.676Z,153.43
2019-03-26T08:59:10.237Z,153.43
2019-03-26T09:01:38.747Z,156.17
2019-03-26T09:04:07.340Z,149.60
2019-03-26T09:06:35.953Z,153.20
2019-03-26T09:09:07.182Z,172.40
2019-03-26T09:36:19.731Z,150.77
2019-03-26T09:38:48.278Z,156.07
2019-03-26T09:41:16.956Z,165.03
2019-03-26T09:43:49.420Z,156.33
2019-03-26T09:46:17.836Z,157.97
2019-03-26T09:48:46.468Z,154.67
2019-03-26T09:55:28.060Z,174.97
2019-03-26T09:57:56.556Z,157.57
2019-03-26T10:00:25.069Z,161.63
2019-03-26T10:02:53.807Z,172.40
2019-03-26T10:05:22.068Z,161.70
2019-03-26T10:07:50.570Z,152.93
2019-03-26T10:10:19.255Z,157.00
2019-03-26T10:12:47.758Z,161.03
2019-03-26T10:15:16.467Z,149.70
2019-03-26T10:17:44.881Z,173.60
2019-03-26T10:20:13.156Z,135.87
2019-03-26T10:22:41.487Z,145.47
2019-03-26T10:27:49.900Z,162.37
2019-03-26T10:30:24.831Z,167.10
2019-03-26T10:32:52.626Z,131.40
2019-03-26T10:35:20.879Z,141.17
2019-03-26T10:37:49.240Z,142.63
2019-03-26T10:40:19.211Z,129.37
2019-03-26T10:42:47.638Z,137.07
2019-03-26T10:45:16.021Z,136.20
2019-03-26T10:47:44.724Z,133.73
2019-03-26T10:50:13.076Z,149.50
2019-03-26T10:52:41.448Z,143.17
2019-03-26T10:55:09.718Z,146.13
2019-03-26T10:57:38.014Z,131.93
2019-03-26T11:00:06.458Z,140.43
2019-03-26T11:02:34.741Z,144.63
2019-03-26T11:05:03.265Z,142.80
2019-03-26T11:07:31.597Z,151.33
2019-03-26T11:09:59.856Z,141.70
2019-03-26T11:12:28.211Z,149.83
2019-03-26T11:14:56.531Z,138.83
2019-03-26T11:17:24.815Z,134.80
2019-03-26T11:19:53.159Z,137.20
2019-03-26T11:22:21.488Z,140.60
2019-03-26T11:24:49.852Z,155.23
2019-03-26T11:27:18.380Z,139.87
2019-03-26T11:29:46.716Z,141.97
2019-03-26T11:32:15.069Z,131.23
2019-03-26T11:34:43.419Z,134.93
2019-03-26T11:37:11.830Z,138.50
2019-03-26T11:39:40.089Z,139.83
2019-03-26T11:42:08.432Z,140.47
2019-03-26T11:44:36.740Z,141.50
2019-03-26T11:47:05.075Z,140.30
2019-03-26T11:49:33.397Z,129.37
2019-03-26T11:52:01.735Z,125.20
2019-03-26T11:54:29.934Z,131.23
2019-03-26T11:56:58.206Z,131.10
2019-03-26T11:59:26.574Z,128.73
2019-03-26T12:01:54.976Z,137.07
2019-03-26T12:04:23.220Z,135.50
2019-03-26T12:06:51.557Z,128.77
2019-03-26T12:09:19.810Z,148.70
2019-03-26T12:11:48.079Z,151.77
2019-03-26T12:14:16.400Z,136.17
2019-03-26T12:16:44.654Z,131.73
2019-03-26T12:19:12.914Z,131.53
2019-03-26T12:21:41.218Z,156.43
2019-03-26T12:24:12.429Z,135.53
2019-03-26T12:26:40.993Z,140.93
2019-03-26T12:29:09.315Z,140.27
2019-03-26T12:31:37.631Z,145.00
2019-03-26T12:34:05.898Z,133.93
2019-03-26T12:36:39.790Z,133.83
2019-03-26T12:39:06.681Z,131.33
2019-03-26T12:41:37.125Z,134.13
2019-03-26T12:44:04.912Z,149.47
2019-03-26T12:46:33.170Z,133.37
2019-03-26T12:49:01.429Z,136.47
2019-03-26T12:51:29.671Z,131.33
2019-03-26T12:53:57.927Z,144.07
2019-03-26T12:56:26.547Z,134.77
2019-03-26T12:58:55.122Z,142.40
2019-03-26T13:01:23.462Z,143.90
2019-03-26T13:03:51.788Z,142.80
2019-03-26T13:06:20.179Z,148.17
2019-03-26T13:08:48.770Z,143.80
2019-03-26T13:11:17.387Z,134.20
2019-03-26T13:13:45.983Z,151.87
2019-03-26T13:16:14.317Z,149.47
2019-03-26T13:18:42.675Z,147.00
2019-03-26T13:21:11.326Z,142.83
2019-03-26T13:23:39.574Z,148.83
2019-03-26T13:26:08.469Z,139.53
2019-03-26T13:28:38.491Z,150.77
2019-03-26T13:31:06.713Z,148.87
2019-03-26T13:33:35.133Z,150.57
2019-03-26T13:36:03.849Z,149.20
2019-03-26T13:38:32.535Z,148.07
2019-03-26T13:41:01.322Z,154.70
2019-03-26T13:43:30.126Z,151.53
2019-03-26T13:45:58.826Z,147.83
2019-03-26T13:48:27.398Z,155.60
2019-03-26T13:50:55.736Z,155.53
2019-03-26T13:53:24.307Z,150.37
2019-03-26T13:55:52.579Z,141.23
2019-03-26T13:58:21.373Z,140.73
2019-03-26T14:00:49.958Z,143.50
2019-03-26T14:03:18.687Z,154.83
2019-03-26T14:05:47.863Z,151.20
2019-03-26T14:08:17.498Z,147.70
2019-03-26T14:10:45.880Z,147.00
2019-03-26T14:13:14.480Z,133.30
2019-03-26T14:15:42.883Z,121.90
2019-03-26T14:18:11.279Z,131.03
2019-03-26T14:20:39.671Z,152.47
2019-03-26T14:23:07.940Z,135.27
2019-03-26T14:25:39.248Z,128.73
2019-03-26T14:28:07.684Z,121.23
2019-03-26T14:30:36.799Z,136.50
2019-03-26T14:33:05.598Z,135.77
2019-03-26T14:35:33.933Z,133.57
2019-03-26T14:38:02.269Z,131.57
2019-03-26T14:40:30.623Z,136.03
2019-03-26T14:42:59.110Z,119.47
2019-03-26T14:45:27.418Z,119.17
2019-03-26T14:47:55.813Z,137.67
2019-03-26T14:50:24.376Z,133.67
2019-03-26T14:52:52.748Z,150.13
2019-03-26T14:55:20.986Z,141.67
2019-03-26T14:57:49.710Z,139.40
2019-03-26T15:00:18.507Z,140.17
2019-03-26T15:02:46.844Z,156.43
2019-03-26T15:05:15.573Z,139.97
2019-03-26T15:07:43.783Z,148.13
2019-03-26T15:10:12.335Z,151.40
2019-03-26T15:12:40.977Z,140.50
2019-03-26T15:15:09.232Z,131.63
2019-03-26T15:17:37.549Z,132.90
2019-03-26T15:20:05.883Z,139.63
2019-03-26T15:22:34.443Z,150.33
2019-03-26T15:25:02.688Z,146.73
2019-03-26T15:27:31.218Z,139.70
2019-03-26T15:29:59.636Z,140.07
2019-03-26T15:32:28.114Z,147.43
2019-03-26T15:34:56.538Z,142.40
2019-03-26T15:37:25.067Z,141.63
2019-03-26T15:39:53.591Z,155.87
2019-03-26T15:42:22.537Z,145.30
2019-03-26T15:44:51.151Z,140.17
2019-03-26T15:47:19.839Z,139.53
2019-03-26T15:49:49.788Z,138.20
2019-03-26T15:52:18.418Z,141.67
2019-03-26T15:54:46.788Z,139.37
2019-03-26T15:57:15.616Z,137.60
2019-03-26T15:59:44.439Z,136.00
2019-03-26T16:02:13.015Z,143.67
2019-03-26T16:04:41.402Z,133.67
2019-03-26T16:07:09.776Z,142.50
2019-03-26T16:09:38.304Z,150.20
2019-03-26T16:12:06.975Z,139.13
2019-03-26T16:14:35.649Z,143.20
2019-03-26T16:17:03.901Z,149.57
2019-03-26T16:19:36.402Z,135.30
2019-03-26T16:22:03.603Z,136.70
2019-03-26T16:24:32.298Z,136.93
2019-03-26T16:27:01.200Z,134.33
2019-03-26T16:29:29.748Z,134.53
2019-03-26T16:31:58.696Z,134.53
2019-03-26T16:34:27.291Z,134.03
2019-03-26T16:36:59.860Z,140.77
2019-03-26T16:39:26.094Z,145.57
2019-03-26T16:41:54.685Z,139.23
2019-03-26T16:44:23.328Z,145.70
2019-03-26T16:46:52.010Z,134.93
2019-03-26T16:49:25.010Z,129.37
2019-03-26T16:51:54.728Z,125.07
2019-03-26T16:54:23.166Z,136.87
2019-03-26T16:56:54.491Z,133.30
2019-03-26T16:59:22.772Z,132.90
2019-03-26T17:01:51.628Z,131.83
2019-03-26T17:04:20.304Z,133.20
2019-03-26T17:06:49.027Z,133.83
2019-03-26T17:09:17.397Z,133.90
2019-03-26T17:11:46.408Z,138.90
2019-03-26T17:14:15.287Z,126.70
2019-03-26T17:16:44.427Z,132.17
2019-03-26T17:19:13.287Z,130.97
2019-03-26T17:21:41.922Z,143.97
2019-03-26T17:24:10.702Z,134.97
2019-03-26T17:26:39.796Z,138.30
2019-03-26T17:29:08.265Z,133.20
2019-03-26T17:31:37.514Z,139.93
2019-03-26T17:34:06.480Z,134.77
2019-03-26T17:36:35.616Z,138.43
2019-03-26T17:39:07.809Z,132.07
2019-03-26T17:41:36.862Z,136.87
2019-03-26T17:44:06.362Z,145.43
2019-03-26T17:46:35.247Z,131.13
2019-03-26T17:49:04.657Z,144.53
2019-03-26T17:51:33.370Z,134.20
2019-03-26T17:54:03.922Z,201.00
2019-03-26T17:56:37.492Z,172.10
2019-03-26T17:59:06.203Z,182.03
2019-03-26T18:01:35.095Z,186.40
2019-03-26T18:04:03.804Z,197.50
2019-03-26T18:06:32.682Z,175.63
2019-03-26T18:09:01.595Z,192.50
2019-03-26T18:11:33.110Z,179.57
2019-03-26T18:14:02.297Z,187.17
2019-03-26T18:16:31.797Z,195.37
2019-03-26T18:19:01.047Z,190.13
2019-03-26T18:21:29.834Z,188.23
2019-03-26T18:23:58.578Z,181.53
2019-03-26T18:26:27.843Z,188.10
2019-03-26T18:28:56.631Z,176.27
2019-03-26T18:31:25.413Z,179.83
2019-03-26T18:33:55.461Z,188.70
2019-03-26T18:36:25.608Z,191.67
2019-03-26T18:38:54.430Z,200.83
2019-03-26T18:41:23.521Z,195.63
2019-03-26T18:43:52.791Z,192.80
2019-03-26T18:46:21.626Z,190.50
2019-03-26T18:48:50.935Z,184.13
2019-03-26T18:51:19.978Z,188.50
2019-03-26T18:53:48.974Z,182.13
2019-03-26T18:56:17.984Z,141.87
2019-03-26T18:58:46.793Z,136.30
2019-03-26T19:01:16.030Z,120.20
2019-03-26T19:03:45.037Z,158.33
2019-03-26T19:06:14.016Z,152.40
2019-03-26T19:08:43.266Z,169.03
2019-03-26T19:11:13.640Z,165.80
2019-03-26T19:17:01.267Z,154.00
2019-03-26T19:19:29.780Z,180.53
2019-03-26T19:21:58.764Z,143.70
2019-03-26T19:24:28.356Z,159.17
2019-03-26T19:26:57.615Z,166.73
2019-03-26T19:29:27.516Z,158.87
2019-03-26T19:31:57.037Z,148.50
2019-03-26T19:34:26.148Z,155.77
2019-03-26T19:36:54.838Z,160.20
2019-03-26T19:39:25.339Z,143.37
2019-03-26T19:41:53.979Z,155.00
2019-03-26T19:44:22.843Z,141.17
2019-03-26T19:46:52.019Z,157.87
2019-03-26T19:49:21.205Z,168.83
2019-03-26T19:51:50.337Z,152.67
2019-03-26T19:54:40.730Z,167.77
2019-03-26T19:57:12.423Z,158.63
2019-03-26T19:59:42.778Z,157.27
2019-03-26T20:02:11.253Z,146.40
2019-03-26T20:04:40.419Z,154.63
2019-03-26T20:07:11.172Z,147.97
2019-03-26T20:09:40.737Z,158.23
2019-03-26T20:12:09.013Z,151.57
2019-03-26T20:14:38.308Z,159.67
2019-03-26T20:17:07.226Z,166.30
2019-03-26T20:19:36.401Z,155.07
2019-03-26T20:22:05.021Z,160.87
2019-03-26T20:24:34.109Z,151.00
2019-03-26T20:27:05.728Z,150.37
2019-03-26T20:29:34.329Z,155.43
2019-03-26T20:32:02.736Z,153.67
2019-03-26T20:34:31.418Z,189.00
2019-03-26T20:37:00.403Z,179.37
2019-03-26T20:39:29.186Z,166.03
2019-03-26T20:41:57.988Z,153.27
2019-03-26T20:44:30.479Z,162.73
2019-03-26T20:46:59.298Z,173.57
2019-03-26T20:49:28.034Z,155.47
2019-03-26T20:51:56.696Z,153.13
2019-03-26T20:54:25.171Z,167.53
2019-03-26T20:56:53.904Z,164.00
2019-03-26T20:59:22.289Z,164.70
2019-03-26T21:01:51.119Z,168.70
2019-03-26T21:04:21.171Z,173.63
2019-03-26T21:06:49.688Z,154.77
2019-03-26T21:09:18.622Z,161.10
2019-03-26T21:11:47.085Z,154.43
2019-03-26T21:14:18.864Z,171.47
2019-03-26T21:16:47.301Z,162.43
2019-03-26T21:19:16.175Z,177.70
2019-03-26T21:21:44.889Z,164.63
2019-03-26T21:24:13.743Z,166.77
2019-03-26T21:26:42.003Z,156.07
2019-03-26T21:29:10.351Z,166.43
2019-03-26T21:31:39.041Z,163.27
2019-03-26T21:34:07.683Z,159.50
2019-03-26T21:36:38.057Z,159.53
2019-03-26T21:39:06.759Z,168.17
2019-03-26T21:41:35.093Z,172.27
2019-03-26T21:44:04.887Z,157.00
2019-03-26T21:46:35.511Z,162.53
2019-03-26T21:49:04.557Z,163.50
2019-03-26T21:51:33.383Z,170.40
2019-03-26T21:54:02.003Z,161.87
2019-03-26T21:56:30.279Z,159.47
2019-03-26T21:58:59.868Z,167.17
2019-03-26T22:01:28.493Z,166.73
2019-03-26T22:03:57.176Z,166.23
2019-03-26T22:06:25.814Z,166.90
2019-03-26T22:08:54.480Z,161.70
2019-03-26T22:11:24.339Z,163.63
2019-03-26T22:13:52.691Z,149.23
2019-03-26T22:16:21.417Z,162.33
2019-03-26T22:18:50.004Z,164.47
2019-03-26T22:21:18.634Z,153.70
2019-03-26T22:23:47.562Z,167.30
2019-03-26T22:26:15.969Z,159.30
2019-03-26T22:28:44.539Z,158.03
2019-03-26T22:31:13.182Z,160.90
2019-03-26T22:33:41.798Z,177.50
2019-03-26T22:36:10.116Z,165.90
2019-03-26T22:38:38.760Z,158.03
2019-03-26T22:41:07.441Z,147.60
2019-03-26T22:43:36.153Z,146.97
2019-03-26T22:46:04.637Z,150.77
2019-03-26T22:48:33.025Z,161.40
2019-03-26T22:51:01.999Z,156.97
2019-03-26T22:53:30.561Z,163.17
2019-03-26T22:55:59.155Z,167.47
2019-03-26T22:58:27.669Z,155.07
2019-03-26T23:00:56.858Z,156.83
2019-03-26T23:03:25.480Z,174.80
2019-03-26T23:05:54.260Z,154.67
2019-03-26T23:08:22.635Z,156.50
2019-03-26T23:10:51.671Z,154.03
2019-03-26T23:13:20.185Z,158.30
2019-03-26T23:15:48.861Z,159.73
2019-03-26T23:18:17.474Z,157.77
2019-03-26T23:20:46.041Z,156.80
2019-03-26T23:23:15.028Z,149.97
2019-03-26T23:25:43.511Z,151.83
2019-03-26T23:28:12.067Z,168.47
2019-03-26T23:30:40.398Z,153.97
2019-03-26T23:33:08.665Z,166.27
2019-03-26T23:35:37.223Z,177.23
2019-03-26T23:38:05.789Z,149.27
2019-03-26T23:40:34.299Z,161.70
2019-03-26T23:43:02.929Z,149.50
2019-03-26T23:45:31.641Z,152.70
2019-03-26T23:48:00.217Z,150.50
2019-03-26T23:50:28.706Z,154.60
2019-03-26T23:52:57.322Z,150.93
2019-03-26T23:55:25.896Z,146.67
2019-03-26T23:57:54.526Z,149.73
